sensor_id;sensor_type;location;lat;lon;timestamp;P1;durP1;ratioP1;P2;durP2;ratioP2
13108;SDS011;6620;53.734;11.510;2023-05-31T00:01:21;2.27;;;1.33;;
13108;SDS011;6620;53.734;11.510;2023-05-31T00:03:46;5.60;;;1.40;;
13108;SDS011;6620;53.734;11.510;2023-05-31T00:06:12;3.37;;;1.37;;
13108;SDS011;6620;53.734;11.510;2023-05-31T00:08:37;3.90;;;1.55;;
13108;SDS011;6620;53.734;11.510;2023-05-31T00:11:02;3.03;;;1.45;;
13108;SDS011;6620;53.734;11.510;2023-05-31T00:13:28;2.22;;;1.27;;
13108;SDS011;6620;53.734;11.510;2023-05-31T00:15:53;6.10;;;1.53;;
13108;SDS011;6620;53.734;11.510;2023-05-31T00:18:18;5.22;;;1.65;;
13108;SDS011;6620;53.734;11.510;2023-05-31T00:20:43;3.17;;;1.30;;
13108;SDS011;6620;53.734;11.510;2023-05-31T00:23:08;3.20;;;1.40;;
13108;SDS011;6620;53.734;11.510;2023-05-31T00:25:34;2.28;;;1.23;;
13108;SDS011;6620;53.734;11.510;2023-05-31T00:27:59;4.35;;;1.30;;
13108;SDS011;6620;53.734;11.510;2023-05-31T00:30:25;2.70;;;1.27;;
13108;SDS011;6620;53.734;11.510;2023-05-31T00:32:50;4.20;;;1.33;;
13108;SDS011;6620;53.734;11.510;2023-05-31T00:35:15;4.80;;;1.10;;
13108;SDS011;6620;53.734;11.510;2023-05-31T00:37:41;2.55;;;0.85;;
13108;SDS011;6620;53.734;11.510;2023-05-31T00:40:06;3.57;;;1.27;;
13108;SDS011;6620;53.734;11.510;2023-05-31T00:42:32;3.53;;;1.13;;
13108;SDS011;6620;53.734;11.510;2023-05-31T00:44:57;5.28;;;0.90;;
13108;SDS011;6620;53.734;11.510;2023-05-31T00:50:13;1.60;;;1.10;;
13108;SDS011;6620;53.734;11.510;2023-05-31T00:52:38;2.33;;;0.82;;
13108;SDS011;6620;53.734;11.510;2023-05-31T00:55:03;1.33;;;0.90;;
13108;SDS011;6620;53.734;11.510;2023-05-31T00:57:29;3.28;;;0.95;;
13108;SDS011;6620;53.734;11.510;2023-05-31T00:59:54;2.70;;;0.93;;
13108;SDS011;6620;53.734;11.510;2023-05-31T01:02:19;1.55;;;0.63;;
13108;SDS011;6620;53.734;11.510;2023-05-31T01:04:45;2.03;;;0.70;;
13108;SDS011;6620;53.734;11.510;2023-05-31T01:07:10;2.53;;;0.73;;
13108;SDS011;6620;53.734;11.510;2023-05-31T01:09:36;1.65;;;0.55;;
13108;SDS011;6620;53.734;11.510;2023-05-31T01:14:41;5.32;;;1.27;;
13108;SDS011;6620;53.734;11.510;2023-05-31T01:19:53;0.90;;;0.57;;
13108;SDS011;6620;53.734;11.510;2023-05-31T01:27:18;1.77;;;0.70;;
13108;SDS011;6620;53.734;11.510;2023-05-31T01:29:44;1.77;;;0.60;;
13108;SDS011;6620;53.734;11.510;2023-05-31T01:32:10;1.23;;;1.00;;
13108;SDS011;6620;53.734;11.510;2023-05-31T01:34:38;2.10;;;0.88;;
13108;SDS011;6620;53.734;11.510;2023-05-31T01:37:03;3.28;;;0.88;;
13108;SDS011;6620;53.734;11.510;2023-05-31T01:39:29;1.23;;;0.70;;
13108;SDS011;6620;53.734;11.510;2023-05-31T01:41:54;3.35;;;0.90;;
13108;SDS011;6620;53.734;11.510;2023-05-31T01:44:20;2.75;;;1.00;;
13108;SDS011;6620;53.734;11.510;2023-05-31T01:46:45;2.38;;;0.70;;
13108;SDS011;6620;53.734;11.510;2023-05-31T01:49:11;2.20;;;0.80;;
13108;SDS011;6620;53.734;11.510;2023-05-31T01:51:37;4.10;;;0.90;;
13108;SDS011;6620;53.734;11.510;2023-05-31T01:54:05;3.97;;;0.77;;
13108;SDS011;6620;53.734;11.510;2023-05-31T01:56:30;2.00;;;0.60;;
13108;SDS011;6620;53.734;11.510;2023-05-31T01:58:56;1.38;;;1.05;;
13108;SDS011;6620;53.734;11.510;2023-05-31T02:01:22;1.35;;;0.98;;
13108;SDS011;6620;53.734;11.510;2023-05-31T02:03:50;3.03;;;0.80;;
13108;SDS011;6620;53.734;11.510;2023-05-31T02:06:16;1.98;;;1.15;;
13108;SDS011;6620;53.734;11.510;2023-05-31T02:08:41;1.17;;;0.60;;
13108;SDS011;6620;53.734;11.510;2023-05-31T02:11:07;3.33;;;0.90;;
13108;SDS011;6620;53.734;11.510;2023-05-31T02:13:32;1.65;;;0.95;;
13108;SDS011;6620;53.734;11.510;2023-05-31T02:15:58;3.63;;;1.13;;
13108;SDS011;6620;53.734;11.510;2023-05-31T02:18:23;2.72;;;0.80;;
13108;SDS011;6620;53.734;11.510;2023-05-31T02:20:51;1.10;;;0.73;;
13108;SDS011;6620;53.734;11.510;2023-05-31T02:23:17;1.90;;;0.65;;
13108;SDS011;6620;53.734;11.510;2023-05-31T02:25:44;1.53;;;0.60;;
13108;SDS011;6620;53.734;11.510;2023-05-31T02:28:10;1.38;;;0.80;;
13108;SDS011;6620;53.734;11.510;2023-05-31T02:30:35;1.42;;;0.70;;
13108;SDS011;6620;53.734;11.510;2023-05-31T02:33:01;1.38;;;0.70;;
13108;SDS011;6620;53.734;11.510;2023-05-31T02:35:27;1.83;;;0.90;;
13108;SDS011;6620;53.734;11.510;2023-05-31T02:37:52;1.27;;;1.00;;
13108;SDS011;6620;53.734;11.510;2023-05-31T02:40:17;0.75;;;0.52;;
13108;SDS011;6620;53.734;11.510;2023-05-31T02:42:43;1.83;;;0.80;;
13108;SDS011;6620;53.734;11.510;2023-05-31T02:45:08;3.22;;;0.65;;
13108;SDS011;6620;53.734;11.510;2023-05-31T02:47:35;0.80;;;0.68;;
13108;SDS011;6620;53.734;11.510;2023-05-31T02:50:00;1.35;;;0.63;;
13108;SDS011;6620;53.734;11.510;2023-05-31T02:52:25;0.73;;;0.52;;
13108;SDS011;6620;53.734;11.510;2023-05-31T02:54:51;2.15;;;0.90;;
13108;SDS011;6620;53.734;11.510;2023-05-31T02:57:16;1.42;;;0.57;;
13108;SDS011;6620;53.734;11.510;2023-05-31T02:59:45;2.80;;;0.77;;
13108;SDS011;6620;53.734;11.510;2023-05-31T03:02:11;0.75;;;0.70;;
13108;SDS011;6620;53.734;11.510;2023-05-31T03:04:36;1.05;;;0.80;;
13108;SDS011;6620;53.734;11.510;2023-05-31T03:07:01;1.20;;;0.55;;
13108;SDS011;6620;53.734;11.510;2023-05-31T03:09:26;0.60;;;0.60;;
13108;SDS011;6620;53.734;11.510;2023-05-31T03:11:52;1.00;;;0.73;;
13108;SDS011;6620;53.734;11.510;2023-05-31T03:14:17;0.70;;;0.70;;
13108;SDS011;6620;53.734;11.510;2023-05-31T03:16:42;1.30;;;0.70;;
13108;SDS011;6620;53.734;11.510;2023-05-31T03:19:07;0.88;;;0.73;;
13108;SDS011;6620;53.734;11.510;2023-05-31T03:21:33;1.57;;;0.70;;
13108;SDS011;6620;53.734;11.510;2023-05-31T03:23:58;1.70;;;1.00;;
13108;SDS011;6620;53.734;11.510;2023-05-31T03:26:23;2.25;;;0.98;;
13108;SDS011;6620;53.734;11.510;2023-05-31T03:28:48;2.10;;;0.80;;
13108;SDS011;6620;53.734;11.510;2023-05-31T03:31:13;2.33;;;1.23;;
13108;SDS011;6620;53.734;11.510;2023-05-31T03:33:39;1.67;;;1.00;;
13108;SDS011;6620;53.734;11.510;2023-05-31T03:36:04;1.70;;;0.90;;
13108;SDS011;6620;53.734;11.510;2023-05-31T03:38:29;2.15;;;0.80;;
13108;SDS011;6620;53.734;11.510;2023-05-31T03:40:55;2.22;;;0.88;;
13108;SDS011;6620;53.734;11.510;2023-05-31T03:43:20;0.87;;;0.77;;
13108;SDS011;6620;53.734;11.510;2023-05-31T03:45:45;1.35;;;0.80;;
13108;SDS011;6620;53.734;11.510;2023-05-31T03:48:10;1.15;;;0.80;;
13108;SDS011;6620;53.734;11.510;2023-05-31T03:50:37;2.27;;;1.00;;
13108;SDS011;6620;53.734;11.510;2023-05-31T03:53:03;0.90;;;0.90;;
13108;SDS011;6620;53.734;11.510;2023-05-31T03:55:28;1.77;;;0.90;;
13108;SDS011;6620;53.734;11.510;2023-05-31T03:57:54;2.80;;;0.83;;
13108;SDS011;6620;53.734;11.510;2023-05-31T04:00:19;2.10;;;0.60;;
13108;SDS011;6620;53.734;11.510;2023-05-31T04:02:44;0.82;;;0.80;;
13108;SDS011;6620;53.734;11.510;2023-05-31T04:05:09;1.95;;;0.70;;
13108;SDS011;6620;53.734;11.510;2023-05-31T04:07:34;0.77;;;0.40;;
13108;SDS011;6620;53.734;11.510;2023-05-31T04:10:00;0.80;;;0.60;;
13108;SDS011;6620;53.734;11.510;2023-05-31T04:12:25;1.80;;;0.50;;
13108;SDS011;6620;53.734;11.510;2023-05-31T04:14:50;1.40;;;0.90;;
13108;SDS011;6620;53.734;11.510;2023-05-31T04:17:16;0.45;;;0.45;;
13108;SDS011;6620;53.734;11.510;2023-05-31T04:19:41;1.90;;;0.80;;
13108;SDS011;6620;53.734;11.510;2023-05-31T04:22:06;1.60;;;1.00;;
13108;SDS011;6620;53.734;11.510;2023-05-31T04:24:31;0.60;;;0.60;;
13108;SDS011;6620;53.734;11.510;2023-05-31T04:26:57;1.65;;;0.70;;
13108;SDS011;6620;53.734;11.510;2023-05-31T04:29:22;0.70;;;0.63;;
13108;SDS011;6620;53.734;11.510;2023-05-31T04:31:50;1.35;;;0.70;;
13108;SDS011;6620;53.734;11.510;2023-05-31T04:34:15;1.00;;;0.80;;
13108;SDS011;6620;53.734;11.510;2023-05-31T04:36:43;2.78;;;1.33;;
13108;SDS011;6620;53.734;11.510;2023-05-31T04:39:09;2.65;;;0.95;;
13108;SDS011;6620;53.734;11.510;2023-05-31T04:41:39;1.35;;;0.85;;
13108;SDS011;6620;53.734;11.510;2023-05-31T04:44:04;3.77;;;1.10;;
13108;SDS011;6620;53.734;11.510;2023-05-31T04:46:29;1.00;;;0.90;;
13108;SDS011;6620;53.734;11.510;2023-05-31T04:48:55;0.93;;;0.93;;
13108;SDS011;6620;53.734;11.510;2023-05-31T04:51:20;1.27;;;1.13;;
13108;SDS011;6620;53.734;11.510;2023-05-31T04:53:45;2.20;;;1.00;;
13108;SDS011;6620;53.734;11.510;2023-05-31T04:56:12;2.83;;;2.05;;
13108;SDS011;6620;53.734;11.510;2023-05-31T04:58:38;1.00;;;0.82;;
13108;SDS011;6620;53.734;11.510;2023-05-31T05:01:03;2.92;;;1.20;;
13108;SDS011;6620;53.734;11.510;2023-05-31T05:03:28;2.83;;;1.02;;
13108;SDS011;6620;53.734;11.510;2023-05-31T05:05:56;1.40;;;1.03;;
13108;SDS011;6620;53.734;11.510;2023-05-31T05:08:21;2.58;;;1.35;;
13108;SDS011;6620;53.734;11.510;2023-05-31T05:10:47;4.68;;;1.73;;
13108;SDS011;6620;53.734;11.510;2023-05-31T05:13:12;3.58;;;1.67;;
13108;SDS011;6620;53.734;11.510;2023-05-31T05:15:37;3.40;;;1.90;;
13108;SDS011;6620;53.734;11.510;2023-05-31T05:18:02;5.00;;;1.83;;
13108;SDS011;6620;53.734;11.510;2023-05-31T05:20:28;4.57;;;1.52;;
13108;SDS011;6620;53.734;11.510;2023-05-31T05:22:53;5.33;;;2.30;;
13108;SDS011;6620;53.734;11.510;2023-05-31T05:25:18;3.65;;;1.85;;
13108;SDS011;6620;53.734;11.510;2023-05-31T05:27:44;3.95;;;2.15;;
13108;SDS011;6620;53.734;11.510;2023-05-31T05:30:10;2.43;;;1.37;;
13108;SDS011;6620;53.734;11.510;2023-05-31T05:32:35;4.50;;;1.98;;
13108;SDS011;6620;53.734;11.510;2023-05-31T05:35:00;4.93;;;2.40;;
13108;SDS011;6620;53.734;11.510;2023-05-31T05:37:25;3.33;;;1.60;;
13108;SDS011;6620;53.734;11.510;2023-05-31T05:39:51;4.03;;;2.07;;
13108;SDS011;6620;53.734;11.510;2023-05-31T05:42:16;5.20;;;2.20;;
13108;SDS011;6620;53.734;11.510;2023-05-31T05:44:41;2.22;;;1.42;;
13108;SDS011;6620;53.734;11.510;2023-05-31T05:47:06;4.57;;;1.90;;
13108;SDS011;6620;53.734;11.510;2023-05-31T05:49:32;2.45;;;1.58;;
13108;SDS011;6620;53.734;11.510;2023-05-31T05:51:58;5.68;;;1.75;;
13108;SDS011;6620;53.734;11.510;2023-05-31T05:54:23;3.27;;;1.60;;
13108;SDS011;6620;53.734;11.510;2023-05-31T05:56:49;3.47;;;1.63;;
13108;SDS011;6620;53.734;11.510;2023-05-31T05:59:14;2.95;;;1.35;;
13108;SDS011;6620;53.734;11.510;2023-05-31T06:01:39;2.08;;;1.38;;
13108;SDS011;6620;53.734;11.510;2023-05-31T06:04:05;4.10;;;1.63;;
13108;SDS011;6620;53.734;11.510;2023-05-31T06:06:31;2.63;;;0.90;;
13108;SDS011;6620;53.734;11.510;2023-05-31T06:08:57;3.85;;;1.40;;
13108;SDS011;6620;53.734;11.510;2023-05-31T06:11:22;2.67;;;1.30;;
13108;SDS011;6620;53.734;11.510;2023-05-31T06:13:47;5.80;;;1.55;;
13108;SDS011;6620;53.734;11.510;2023-05-31T06:16:13;3.23;;;1.03;;
13108;SDS011;6620;53.734;11.510;2023-05-31T06:18:38;3.10;;;1.20;;
13108;SDS011;6620;53.734;11.510;2023-05-31T06:21:03;4.40;;;1.30;;
13108;SDS011;6620;53.734;11.510;2023-05-31T06:23:28;4.07;;;1.20;;
13108;SDS011;6620;53.734;11.510;2023-05-31T06:25:54;4.20;;;1.75;;
13108;SDS011;6620;53.734;11.510;2023-05-31T06:28:19;2.83;;;1.07;;
13108;SDS011;6620;53.734;11.510;2023-05-31T06:30:44;3.38;;;1.20;;
13108;SDS011;6620;53.734;11.510;2023-05-31T06:33:09;2.45;;;1.42;;
13108;SDS011;6620;53.734;11.510;2023-05-31T06:35:34;2.15;;;0.90;;
13108;SDS011;6620;53.734;11.510;2023-05-31T06:38:00;4.90;;;1.20;;
13108;SDS011;6620;53.734;11.510;2023-05-31T06:40:25;2.87;;;1.30;;
13108;SDS011;6620;53.734;11.510;2023-05-31T06:42:50;2.07;;;1.03;;
13108;SDS011;6620;53.734;11.510;2023-05-31T06:45:15;6.67;;;1.87;;
13108;SDS011;6620;53.734;11.510;2023-05-31T06:47:40;3.30;;;1.30;;
13108;SDS011;6620;53.734;11.510;2023-05-31T06:50:06;3.25;;;1.10;;
13108;SDS011;6620;53.734;11.510;2023-05-31T06:52:31;1.65;;;1.13;;
13108;SDS011;6620;53.734;11.510;2023-05-31T06:54:56;2.13;;;0.90;;
13108;SDS011;6620;53.734;11.510;2023-05-31T06:57:22;1.57;;;1.10;;
13108;SDS011;6620;53.734;11.510;2023-05-31T06:59:47;1.33;;;0.70;;
13108;SDS011;6620;53.734;11.510;2023-05-31T07:02:12;2.03;;;0.97;;
13108;SDS011;6620;53.734;11.510;2023-05-31T07:04:37;1.60;;;1.00;;
13108;SDS011;6620;53.734;11.510;2023-05-31T07:07:02;3.40;;;1.00;;
13108;SDS011;6620;53.734;11.510;2023-05-31T07:09:28;1.73;;;0.80;;
13108;SDS011;6620;53.734;11.510;2023-05-31T07:11:54;1.80;;;0.80;;
13108;SDS011;6620;53.734;11.510;2023-05-31T07:14:19;2.72;;;1.02;;
13108;SDS011;6620;53.734;11.510;2023-05-31T07:16:44;2.40;;;1.42;;
13108;SDS011;6620;53.734;11.510;2023-05-31T07:19:10;2.25;;;0.70;;
13108;SDS011;6620;53.734;11.510;2023-05-31T07:21:35;2.15;;;1.30;;
13108;SDS011;6620;53.734;11.510;2023-05-31T07:24:01;2.45;;;0.88;;
13108;SDS011;6620;53.734;11.510;2023-05-31T07:26:26;1.70;;;0.87;;
13108;SDS011;6620;53.734;11.510;2023-05-31T07:28:51;1.85;;;0.95;;
13108;SDS011;6620;53.734;11.510;2023-05-31T07:31:19;2.47;;;1.13;;
13108;SDS011;6620;53.734;11.510;2023-05-31T07:33:45;1.30;;;0.88;;
13108;SDS011;6620;53.734;11.510;2023-05-31T07:36:10;2.58;;;1.25;;
13108;SDS011;6620;53.734;11.510;2023-05-31T07:38:35;1.95;;;0.93;;
13108;SDS011;6620;53.734;11.510;2023-05-31T07:41:01;2.07;;;1.00;;
13108;SDS011;6620;53.734;11.510;2023-05-31T07:43:26;4.15;;;0.80;;
13108;SDS011;6620;53.734;11.510;2023-05-31T07:45:54;3.90;;;0.82;;
13108;SDS011;6620;53.734;11.510;2023-05-31T07:48:19;2.22;;;0.82;;
13108;SDS011;6620;53.734;11.510;2023-05-31T07:50:45;2.92;;;0.90;;
13108;SDS011;6620;53.734;11.510;2023-05-31T07:53:10;3.25;;;0.70;;
13108;SDS011;6620;53.734;11.510;2023-05-31T07:55:36;1.87;;;0.80;;
13108;SDS011;6620;53.734;11.510;2023-05-31T07:58:02;1.20;;;0.60;;
13108;SDS011;6620;53.734;11.510;2023-05-31T08:00:27;1.73;;;0.60;;
13108;SDS011;6620;53.734;11.510;2023-05-31T08:02:52;3.92;;;0.95;;
13108;SDS011;6620;53.734;11.510;2023-05-31T08:05:18;1.93;;;0.70;;
13108;SDS011;6620;53.734;11.510;2023-05-31T08:07:44;3.42;;;0.60;;
13108;SDS011;6620;53.734;11.510;2023-05-31T08:10:09;2.45;;;0.73;;
13108;SDS011;6620;53.734;11.510;2023-05-31T08:12:36;1.35;;;0.63;;
13108;SDS011;6620;53.734;11.510;2023-05-31T08:15:01;1.77;;;0.67;;
13108;SDS011;6620;53.734;11.510;2023-05-31T08:17:26;0.70;;;0.70;;
13108;SDS011;6620;53.734;11.510;2023-05-31T08:19:51;1.55;;;0.65;;
13108;SDS011;6620;53.734;11.510;2023-05-31T08:22:17;1.45;;;0.40;;
13108;SDS011;6620;53.734;11.510;2023-05-31T08:24:42;1.57;;;0.80;;
13108;SDS011;6620;53.734;11.510;2023-05-31T08:27:07;2.73;;;0.80;;
13108;SDS011;6620;53.734;11.510;2023-05-31T08:29:33;2.97;;;0.80;;
13108;SDS011;6620;53.734;11.510;2023-05-31T08:31:58;2.28;;;1.17;;
13108;SDS011;6620;53.734;11.510;2023-05-31T08:34:23;1.52;;;0.60;;
13108;SDS011;6620;53.734;11.510;2023-05-31T08:36:48;1.30;;;0.50;;
13108;SDS011;6620;53.734;11.510;2023-05-31T08:39:14;2.80;;;0.60;;
13108;SDS011;6620;53.734;11.510;2023-05-31T08:41:46;1.65;;;0.90;;
13108;SDS011;6620;53.734;11.510;2023-05-31T08:44:14;3.25;;;1.00;;
13108;SDS011;6620;53.734;11.510;2023-05-31T08:46:39;4.25;;;0.98;;
13108;SDS011;6620;53.734;11.510;2023-05-31T08:49:11;1.48;;;0.85;;
13108;SDS011;6620;53.734;11.510;2023-05-31T08:51:37;2.80;;;0.50;;
13108;SDS011;6620;53.734;11.510;2023-05-31T08:54:03;2.13;;;0.75;;
13108;SDS011;6620;53.734;11.510;2023-05-31T08:56:29;1.63;;;0.80;;
13108;SDS011;6620;53.734;11.510;2023-05-31T08:58:55;1.27;;;0.70;;
13108;SDS011;6620;53.734;11.510;2023-05-31T09:01:20;1.33;;;0.95;;
13108;SDS011;6620;53.734;11.510;2023-05-31T09:03:47;2.20;;;0.57;;
13108;SDS011;6620;53.734;11.510;2023-05-31T09:06:12;2.20;;;0.60;;
13108;SDS011;6620;53.734;11.510;2023-05-31T09:08:37;0.88;;;0.60;;
13108;SDS011;6620;53.734;11.510;2023-05-31T09:11:03;1.45;;;0.70;;
13108;SDS011;6620;53.734;11.510;2023-05-31T09:13:28;1.13;;;0.50;;
13108;SDS011;6620;53.734;11.510;2023-05-31T09:15:54;3.53;;;0.63;;
13108;SDS011;6620;53.734;11.510;2023-05-31T09:18:19;1.45;;;0.40;;
13108;SDS011;6620;53.734;11.510;2023-05-31T09:20:48;3.88;;;0.70;;
13108;SDS011;6620;53.734;11.510;2023-05-31T09:23:13;0.80;;;0.50;;
13108;SDS011;6620;53.734;11.510;2023-05-31T09:25:43;1.27;;;0.57;;
13108;SDS011;6620;53.734;11.510;2023-05-31T09:28:08;2.03;;;1.00;;
13108;SDS011;6620;53.734;11.510;2023-05-31T09:30:33;1.53;;;0.63;;
13108;SDS011;6620;53.734;11.510;2023-05-31T09:32:58;2.80;;;0.53;;
13108;SDS011;6620;53.734;11.510;2023-05-31T09:35:24;3.13;;;0.63;;
13108;SDS011;6620;53.734;11.510;2023-05-31T09:37:52;2.38;;;0.90;;
13108;SDS011;6620;53.734;11.510;2023-05-31T09:40:24;1.23;;;0.55;;
13108;SDS011;6620;53.734;11.510;2023-05-31T09:42:50;5.15;;;0.50;;
13108;SDS011;6620;53.734;11.510;2023-05-31T09:45:16;1.70;;;0.65;;
13108;SDS011;6620;53.734;11.510;2023-05-31T09:47:41;2.40;;;0.82;;
13108;SDS011;6620;53.734;11.510;2023-05-31T09:50:16;4.80;;;1.02;;
13108;SDS011;6620;53.734;11.510;2023-05-31T09:52:45;3.72;;;1.05;;
13108;SDS011;6620;53.734;11.510;2023-05-31T09:55:11;1.30;;;0.63;;
13108;SDS011;6620;53.734;11.510;2023-05-31T09:57:38;2.95;;;1.00;;
13108;SDS011;6620;53.734;11.510;2023-05-31T10:02:37;1.35;;;0.70;;
13108;SDS011;6620;53.734;11.510;2023-05-31T10:05:02;1.83;;;0.63;;
13108;SDS011;6620;53.734;11.510;2023-05-31T10:07:28;4.03;;;0.90;;
13108;SDS011;6620;53.734;11.510;2023-05-31T10:09:53;1.58;;;0.88;;
13108;SDS011;6620;53.734;11.510;2023-05-31T10:12:18;2.70;;;0.90;;
13108;SDS011;6620;53.734;11.510;2023-05-31T10:14:47;3.58;;;0.80;;
13108;SDS011;6620;53.734;11.510;2023-05-31T10:17:14;2.92;;;0.93;;
13108;SDS011;6620;53.734;11.510;2023-05-31T10:19:45;2.40;;;0.77;;
13108;SDS011;6620;53.734;11.510;2023-05-31T10:22:13;3.33;;;0.50;;
13108;SDS011;6620;53.734;11.510;2023-05-31T10:27:08;2.40;;;0.52;;
13108;SDS011;6620;53.734;11.510;2023-05-31T10:29:53;2.88;;;1.23;;
13108;SDS011;6620;53.734;11.510;2023-05-31T10:32:24;2.75;;;1.17;;
13108;SDS011;6620;53.734;11.510;2023-05-31T10:34:50;2.70;;;1.20;;
13108;SDS011;6620;53.734;11.510;2023-05-31T10:37:16;3.10;;;0.75;;
13108;SDS011;6620;53.734;11.510;2023-05-31T10:47:15;1.63;;;0.60;;
13108;SDS011;6620;53.734;11.510;2023-05-31T10:49:43;3.53;;;0.95;;
13108;SDS011;6620;53.734;11.510;2023-05-31T10:52:09;2.55;;;0.77;;
13108;SDS011;6620;53.734;11.510;2023-05-31T10:54:34;1.75;;;0.50;;
13108;SDS011;6620;53.734;11.510;2023-05-31T10:57:02;2.22;;;0.80;;
13108;SDS011;6620;53.734;11.510;2023-05-31T10:59:28;3.83;;;0.60;;
13108;SDS011;6620;53.734;11.510;2023-05-31T11:01:53;2.70;;;0.75;;
13108;SDS011;6620;53.734;11.510;2023-05-31T11:04:22;2.67;;;1.10;;
13108;SDS011;6620;53.734;11.510;2023-05-31T11:06:52;2.92;;;0.75;;
13108;SDS011;6620;53.734;11.510;2023-05-31T11:09:18;1.27;;;0.82;;
13108;SDS011;6620;53.734;11.510;2023-05-31T11:11:44;2.05;;;0.80;;
13108;SDS011;6620;53.734;11.510;2023-05-31T11:19:13;0.98;;;0.52;;
13108;SDS011;6620;53.734;11.510;2023-05-31T11:21:55;2.75;;;1.02;;
13108;SDS011;6620;53.734;11.510;2023-05-31T11:26:59;1.90;;;0.60;;
13108;SDS011;6620;53.734;11.510;2023-05-31T11:29:25;1.23;;;0.60;;
13108;SDS011;6620;53.734;11.510;2023-05-31T11:32:15;3.03;;;1.30;;
13108;SDS011;6620;53.734;11.510;2023-05-31T11:34:56;3.20;;;1.40;;
13108;SDS011;6620;53.734;11.510;2023-05-31T11:37:23;2.03;;;0.90;;
13108;SDS011;6620;53.734;11.510;2023-05-31T11:39:48;2.90;;;0.95;;
13108;SDS011;6620;53.734;11.510;2023-05-31T11:42:14;4.82;;;0.70;;
13108;SDS011;6620;53.734;11.510;2023-05-31T11:44:42;0.80;;;0.50;;
13108;SDS011;6620;53.734;11.510;2023-05-31T11:47:09;2.03;;;0.80;;
13108;SDS011;6620;53.734;11.510;2023-05-31T11:49:35;3.95;;;1.13;;
13108;SDS011;6620;53.734;11.510;2023-05-31T11:52:01;2.30;;;1.15;;
13108;SDS011;6620;53.734;11.510;2023-05-31T11:54:26;1.35;;;0.80;;
13108;SDS011;6620;53.734;11.510;2023-05-31T11:56:54;2.45;;;0.80;;
13108;SDS011;6620;53.734;11.510;2023-05-31T11:59:21;4.03;;;0.77;;
13108;SDS011;6620;53.734;11.510;2023-05-31T12:01:46;0.90;;;0.60;;
13108;SDS011;6620;53.734;11.510;2023-05-31T12:04:11;6.10;;;1.02;;
13108;SDS011;6620;53.734;11.510;2023-05-31T12:06:36;1.67;;;0.80;;
13108;SDS011;6620;53.734;11.510;2023-05-31T12:09:02;2.20;;;1.33;;
13108;SDS011;6620;53.734;11.510;2023-05-31T12:11:28;4.05;;;1.00;;
13108;SDS011;6620;53.734;11.510;2023-05-31T12:13:54;2.35;;;1.05;;
13108;SDS011;6620;53.734;11.510;2023-05-31T12:16:20;5.55;;;0.45;;
13108;SDS011;6620;53.734;11.510;2023-05-31T12:18:47;2.20;;;0.82;;
13108;SDS011;6620;53.734;11.510;2023-05-31T12:21:12;2.42;;;0.55;;
13108;SDS011;6620;53.734;11.510;2023-05-31T12:23:53;3.83;;;0.68;;
13108;SDS011;6620;53.734;11.510;2023-05-31T12:26:19;4.15;;;1.23;;
13108;SDS011;6620;53.734;11.510;2023-05-31T12:28:46;4.00;;;0.90;;
13108;SDS011;6620;53.734;11.510;2023-05-31T12:31:18;3.10;;;0.82;;
13108;SDS011;6620;53.734;11.510;2023-05-31T12:33:43;3.13;;;0.85;;
13108;SDS011;6620;53.734;11.510;2023-05-31T12:36:09;2.53;;;0.73;;
13108;SDS011;6620;53.734;11.510;2023-05-31T12:38:37;2.63;;;0.65;;
13108;SDS011;6620;53.734;11.510;2023-05-31T12:41:03;3.90;;;1.40;;
13108;SDS011;6620;53.734;11.510;2023-05-31T12:43:29;4.10;;;0.80;;
13108;SDS011;6620;53.734;11.510;2023-05-31T12:45:55;2.13;;;0.73;;
13108;SDS011;6620;53.734;11.510;2023-05-31T12:48:22;3.10;;;1.10;;
13108;SDS011;6620;53.734;11.510;2023-05-31T12:50:47;1.52;;;0.95;;
13108;SDS011;6620;53.734;11.510;2023-05-31T12:53:13;3.33;;;0.90;;
13108;SDS011;6620;53.734;11.510;2023-05-31T12:55:38;3.03;;;0.93;;
13108;SDS011;6620;53.734;11.510;2023-05-31T12:58:03;4.10;;;1.00;;
13108;SDS011;6620;53.734;11.510;2023-05-31T13:00:28;4.80;;;0.90;;
13108;SDS011;6620;53.734;11.510;2023-05-31T13:02:54;1.38;;;0.70;;
13108;SDS011;6620;53.734;11.510;2023-05-31T13:05:19;0.90;;;0.73;;
13108;SDS011;6620;53.734;11.510;2023-05-31T13:07:44;1.77;;;0.65;;
13108;SDS011;6620;53.734;11.510;2023-05-31T13:10:11;4.95;;;0.95;;
13108;SDS011;6620;53.734;11.510;2023-05-31T13:12:36;2.30;;;0.93;;
13108;SDS011;6620;53.734;11.510;2023-05-31T13:15:02;2.28;;;0.45;;
13108;SDS011;6620;53.734;11.510;2023-05-31T13:17:27;2.47;;;0.70;;
13108;SDS011;6620;53.734;11.510;2023-05-31T13:19:53;3.28;;;0.88;;
13108;SDS011;6620;53.734;11.510;2023-05-31T13:22:18;3.10;;;0.87;;
13108;SDS011;6620;53.734;11.510;2023-05-31T13:24:43;2.07;;;0.70;;
13108;SDS011;6620;53.734;11.510;2023-05-31T13:27:08;1.80;;;0.70;;
13108;SDS011;6620;53.734;11.510;2023-05-31T13:29:34;2.60;;;0.60;;
13108;SDS011;6620;53.734;11.510;2023-05-31T13:31:59;2.40;;;0.40;;
13108;SDS011;6620;53.734;11.510;2023-05-31T13:34:24;3.03;;;0.70;;
13108;SDS011;6620;53.734;11.510;2023-05-31T13:36:50;1.52;;;0.85;;
13108;SDS011;6620;53.734;11.510;2023-05-31T13:39:15;3.40;;;0.77;;
13108;SDS011;6620;53.734;11.510;2023-05-31T13:41:41;2.47;;;0.52;;
13108;SDS011;6620;53.734;11.510;2023-05-31T13:44:07;3.40;;;1.17;;
13108;SDS011;6620;53.734;11.510;2023-05-31T13:46:32;2.20;;;0.73;;
13108;SDS011;6620;53.734;11.510;2023-05-31T13:48:57;4.43;;;0.60;;
13108;SDS011;6620;53.734;11.510;2023-05-31T13:51:22;2.90;;;0.60;;
13108;SDS011;6620;53.734;11.510;2023-05-31T13:53:48;3.73;;;0.70;;
13108;SDS011;6620;53.734;11.510;2023-05-31T13:56:13;4.80;;;0.50;;
13108;SDS011;6620;53.734;11.510;2023-05-31T13:58:38;3.10;;;0.60;;
13108;SDS011;6620;53.734;11.510;2023-05-31T14:01:03;5.30;;;0.80;;
13108;SDS011;6620;53.734;11.510;2023-05-31T14:03:29;1.77;;;0.90;;
13108;SDS011;6620;53.734;11.510;2023-05-31T14:05:54;4.47;;;0.75;;
13108;SDS011;6620;53.734;11.510;2023-05-31T14:08:20;3.22;;;0.50;;
13108;SDS011;6620;53.734;11.510;2023-05-31T14:10:47;3.65;;;0.50;;
13108;SDS011;6620;53.734;11.510;2023-05-31T14:13:12;1.17;;;0.63;;
13108;SDS011;6620;53.734;11.510;2023-05-31T14:15:37;2.07;;;0.40;;
13108;SDS011;6620;53.734;11.510;2023-05-31T14:18:03;2.30;;;0.55;;
13108;SDS011;6620;53.734;11.510;2023-05-31T14:20:28;2.72;;;0.70;;
13108;SDS011;6620;53.734;11.510;2023-05-31T14:22:53;2.87;;;0.67;;
13108;SDS011;6620;53.734;11.510;2023-05-31T14:25:19;1.80;;;0.50;;
13108;SDS011;6620;53.734;11.510;2023-05-31T14:27:44;0.43;;;0.43;;
13108;SDS011;6620;53.734;11.510;2023-05-31T14:30:09;6.00;;;1.33;;
13108;SDS011;6620;53.734;11.510;2023-05-31T14:32:34;8.07;;;0.70;;
13108;SDS011;6620;53.734;11.510;2023-05-31T14:35:00;0.47;;;0.37;;
13108;SDS011;6620;53.734;11.510;2023-05-31T14:37:25;2.17;;;0.77;;
13108;SDS011;6620;53.734;11.510;2023-05-31T14:39:50;4.32;;;0.95;;
13108;SDS011;6620;53.734;11.510;2023-05-31T14:42:15;7.55;;;0.60;;
13108;SDS011;6620;53.734;11.510;2023-05-31T14:44:41;1.20;;;0.50;;
13108;SDS011;6620;53.734;11.510;2023-05-31T14:47:06;1.45;;;0.50;;
13108;SDS011;6620;53.734;11.510;2023-05-31T14:49:31;5.85;;;0.57;;
13108;SDS011;6620;53.734;11.510;2023-05-31T14:51:57;5.63;;;0.90;;
13108;SDS011;6620;53.734;11.510;2023-05-31T14:54:22;7.32;;;0.88;;
13108;SDS011;6620;53.734;11.510;2023-05-31T14:56:47;2.92;;;0.50;;
13108;SDS011;6620;53.734;11.510;2023-05-31T14:59:13;4.47;;;0.73;;
13108;SDS011;6620;53.734;11.510;2023-05-31T15:01:38;3.25;;;0.90;;
13108;SDS011;6620;53.734;11.510;2023-05-31T15:04:10;1.38;;;0.57;;
13108;SDS011;6620;53.734;11.510;2023-05-31T15:06:35;3.33;;;0.57;;
13108;SDS011;6620;53.734;11.510;2023-05-31T15:09:01;2.28;;;0.63;;
13108;SDS011;6620;53.734;11.510;2023-05-31T15:11:27;1.98;;;0.68;;
13108;SDS011;6620;53.734;11.510;2023-05-31T15:13:52;2.57;;;0.53;;